sensor_id;sensor_type;location;lat;lon;timestamp;temperature;humidity
11136;DHT22;5622;50.840;4.948;2023-01-31T00:01:53;4.30;99.90
11136;DHT22;5622;50.840;4.948;2023-01-31T00:04:22;4.30;99.90
11136;DHT22;5622;50.840;4.948;2023-01-31T00:06:49;4.20;99.90
11136;DHT22;5622;50.840;4.948;2023-01-31T00:09:18;4.20;99.90
11136;DHT22;5622;50.840;4.948;2023-01-31T00:11:46;4.20;99.90
11136;DHT22;5622;50.840;4.948;2023-01-31T00:14:17;4.30;99.90
11136;DHT22;5622;50.840;4.948;2023-01-31T00:16:45;4.30;99.90
11136;DHT22;5622;50.840;4.948;2023-01-31T00:19:12;4.20;99.90
11136;DHT22;5622;50.840;4.948;2023-01-31T00:21:41;4.30;99.90
11136;DHT22;5622;50.840;4.948;2023-01-31T00:24:11;4.40;99.90
11136;DHT22;5622;50.840;4.948;2023-01-31T00:26:38;4.40;99.90
11136;DHT22;5622;50.840;4.948;2023-01-31T00:29:06;4.40;99.90
11136;DHT22;5622;50.840;4.948;2023-01-31T00:31:33;4.40;99.90
11136;DHT22;5622;50.840;4.948;2023-01-31T00:34:01;4.40;99.90
11136;DHT22;5622;50.840;4.948;2023-01-31T00:36:31;4.40;99.90
11136;DHT22;5622;50.840;4.948;2023-01-31T00:39:02;4.40;99.90
11136;DHT22;5622;50.840;4.948;2023-01-31T00:41:30;4.50;99.90
11136;DHT22;5622;50.840;4.948;2023-01-31T00:43:58;4.50;99.90
11136;DHT22;5622;50.840;4.948;2023-01-31T00:46:25;4.50;99.90
11136;DHT22;5622;50.840;4.948;2023-01-31T00:48:53;4.40;99.90
11136;DHT22;5622;50.840;4.948;2023-01-31T00:51:22;4.50;99.90
11136;DHT22;5622;50.840;4.948;2023-01-31T00:53:49;4.40;99.90
11136;DHT22;5622;50.840;4.948;2023-01-31T00:56:21;4.40;99.90
11136;DHT22;5622;50.840;4.948;2023-01-31T00:58:49;4.40;99.90
11136;DHT22;5622;50.840;4.948;2023-01-31T01:01:19;4.40;99.90
11136;DHT22;5622;50.840;4.948;2023-01-31T01:03:47;4.40;99.90
11136;DHT22;5622;50.840;4.948;2023-01-31T01:06:15;4.40;99.90
11136;DHT22;5622;50.840;4.948;2023-01-31T01:08:43;4.40;99.90
11136;DHT22;5622;50.840;4.948;2023-01-31T01:11:12;4.40;99.90
11136;DHT22;5622;50.840;4.948;2023-01-31T01:13:42;4.50;99.90
11136;DHT22;5622;50.840;4.948;2023-01-31T01:16:12;4.40;99.90
11136;DHT22;5622;50.840;4.948;2023-01-31T01:18:39;4.30;99.90
11136;DHT22;5622;50.840;4.948;2023-01-31T01:21:08;4.30;99.90
11136;DHT22;5622;50.840;4.948;2023-01-31T01:23:36;4.30;99.90
11136;DHT22;5622;50.840;4.948;2023-01-31T01:26:04;4.30;99.90
11136;DHT22;5622;50.840;4.948;2023-01-31T01:28:33;4.30;99.90
11136;DHT22;5622;50.840;4.948;2023-01-31T01:31:06;4.30;99.90
11136;DHT22;5622;50.840;4.948;2023-01-31T01:33:33;4.30;99.90
11136;DHT22;5622;50.840;4.948;2023-01-31T01:36:01;4.30;99.90
11136;DHT22;5622;50.840;4.948;2023-01-31T01:38:29;4.40;99.90
11136;DHT22;5622;50.840;4.948;2023-01-31T01:40:57;4.30;99.90
11136;DHT22;5622;50.840;4.948;2023-01-31T01:43:39;5.00;99.90
11136;DHT22;5622;50.840;4.948;2023-01-31T01:46:10;4.30;99.90
11136;DHT22;5622;50.840;4.948;2023-01-31T01:48:40;4.30;99.90
11136;DHT22;5622;50.840;4.948;2023-01-31T01:51:08;4.20;99.90
11136;DHT22;5622;50.840;4.948;2023-01-31T01:53:39;4.50;99.90
11136;DHT22;5622;50.840;4.948;2023-01-31T01:56:10;4.20;99.90
11136;DHT22;5622;50.840;4.948;2023-01-31T01:58:46;4.20;99.90
11136;DHT22;5622;50.840;4.948;2023-01-31T02:01:15;4.20;99.90
11136;DHT22;5622;50.840;4.948;2023-01-31T02:03:44;4.10;99.90
11136;DHT22;5622;50.840;4.948;2023-01-31T02:06:11;4.10;99.90
11136;DHT22;5622;50.840;4.948;2023-01-31T02:08:40;4.10;99.90
11136;DHT22;5622;50.840;4.948;2023-01-31T02:11:14;4.10;99.90
11136;DHT22;5622;50.840;4.948;2023-01-31T02:13:45;4.10;99.90
11136;DHT22;5622;50.840;4.948;2023-01-31T02:16:14;4.00;99.90
11136;DHT22;5622;50.840;4.948;2023-01-31T02:18:42;4.00;99.90
11136;DHT22;5622;50.840;4.948;2023-01-31T02:21:37;4.00;99.90
11136;DHT22;5622;50.840;4.948;2023-01-31T02:27:34;3.90;99.90
11136;DHT22;5622;50.840;4.948;2023-01-31T02:33:23;3.80;99.90
11136;DHT22;5622;50.840;4.948;2023-01-31T02:36:02;3.80;99.90
11136;DHT22;5622;50.840;4.948;2023-01-31T02:38:40;3.80;99.90
11136;DHT22;5622;50.840;4.948;2023-01-31T02:41:15;3.80;99.90
11136;DHT22;5622;50.840;4.948;2023-01-31T02:43:49;3.70;99.90
11136;DHT22;5622;50.840;4.948;2023-01-31T02:46:41;3.60;99.90
11136;DHT22;5622;50.840;4.948;2023-01-31T02:49:16;3.60;99.90
11136;DHT22;5622;50.840;4.948;2023-01-31T02:52:02;3.50;99.90
11136;DHT22;5622;50.840;4.948;2023-01-31T02:54:51;3.50;99.90
11136;DHT22;5622;50.840;4.948;2023-01-31T02:57:39;3.50;99.90
11136;DHT22;5622;50.840;4.948;2023-01-31T03:00:08;3.50;99.90
11136;DHT22;5622;50.840;4.948;2023-01-31T03:02:36;3.50;99.90
11136;DHT22;5622;50.840;4.948;2023-01-31T03:05:05;3.40;99.90
11136;DHT22;5622;50.840;4.948;2023-01-31T03:07:34;3.30;99.90
11136;DHT22;5622;50.840;4.948;2023-01-31T03:10:34;3.40;99.90
11136;DHT22;5622;50.840;4.948;2023-01-31T03:13:21;3.40;99.90
11136;DHT22;5622;50.840;4.948;2023-01-31T03:16:01;3.40;99.90
11136;DHT22;5622;50.840;4.948;2023-01-31T03:18:56;3.40;99.90
11136;DHT22;5622;50.840;4.948;2023-01-31T03:21:31;3.40;99.90
11136;DHT22;5622;50.840;4.948;2023-01-31T03:24:04;3.40;99.90
11136;DHT22;5622;50.840;4.948;2023-01-31T03:26:33;3.30;99.90
11136;DHT22;5622;50.840;4.948;2023-01-31T03:29:02;3.30;99.90
11136;DHT22;5622;50.840;4.948;2023-01-31T03:31:35;3.30;99.90
11136;DHT22;5622;50.840;4.948;2023-01-31T03:34:06;3.50;99.90
11136;DHT22;5622;50.840;4.948;2023-01-31T03:36:41;3.20;99.90
11136;DHT22;5622;50.840;4.948;2023-01-31T03:39:17;3.20;99.90
11136;DHT22;5622;50.840;4.948;2023-01-31T03:41:56;3.20;99.90
11136;DHT22;5622;50.840;4.948;2023-01-31T03:44:31;3.20;99.90
11136;DHT22;5622;50.840;4.948;2023-01-31T03:47:03;3.30;99.90
11136;DHT22;5622;50.840;4.948;2023-01-31T03:49:33;4.20;99.90
11136;DHT22;5622;50.840;4.948;2023-01-31T03:52:05;3.30;99.90
11136;DHT22;5622;50.840;4.948;2023-01-31T03:54:38;3.30;99.90
11136;DHT22;5622;50.840;4.948;2023-01-31T03:57:12;3.30;99.90
11136;DHT22;5622;50.840;4.948;2023-01-31T03:59:44;3.30;99.90
11136;DHT22;5622;50.840;4.948;2023-01-31T04:02:15;3.30;99.90
11136;DHT22;5622;50.840;4.948;2023-01-31T04:04:47;3.30;99.90
11136;DHT22;5622;50.840;4.948;2023-01-31T04:07:18;3.30;99.90
11136;DHT22;5622;50.840;4.948;2023-01-31T04:09:45;3.10;99.90
11136;DHT22;5622;50.840;4.948;2023-01-31T04:12:13;3.40;99.90
11136;DHT22;5622;50.840;4.948;2023-01-31T04:14:41;3.50;99.90
11136;DHT22;5622;50.840;4.948;2023-01-31T04:17:09;3.40;99.90
11136;DHT22;5622;50.840;4.948;2023-01-31T04:19:36;3.50;99.90
11136;DHT22;5622;50.840;4.948;2023-01-31T04:22:03;3.30;99.90
11136;DHT22;5622;50.840;4.948;2023-01-31T04:24:36;3.40;99.90
11136;DHT22;5622;50.840;4.948;2023-01-31T04:27:03;3.30;99.90
11136;DHT22;5622;50.840;4.948;2023-01-31T04:29:31;3.10;99.90
11136;DHT22;5622;50.840;4.948;2023-01-31T04:31:58;3.30;99.90
11136;DHT22;5622;50.840;4.948;2023-01-31T04:34:25;3.40;99.90
11136;DHT22;5622;50.840;4.948;2023-01-31T04:36:52;3.20;99.90
11136;DHT22;5622;50.840;4.948;2023-01-31T04:39:19;3.20;99.90
11136;DHT22;5622;50.840;4.948;2023-01-31T04:41:48;3.20;99.90
11136;DHT22;5622;50.840;4.948;2023-01-31T04:44:15;3.20;99.90
11136;DHT22;5622;50.840;4.948;2023-01-31T04:46:45;3.60;99.90
11136;DHT22;5622;50.840;4.948;2023-01-31T04:49:13;3.20;99.90
11136;DHT22;5622;50.840;4.948;2023-01-31T04:51:41;3.20;99.90
11136;DHT22;5622;50.840;4.948;2023-01-31T04:54:08;3.20;99.90
11136;DHT22;5622;50.840;4.948;2023-01-31T04:56:35;3.20;99.90
11136;DHT22;5622;50.840;4.948;2023-01-31T04:59:04;3.20;99.90
11136;DHT22;5622;50.840;4.948;2023-01-31T05:01:32;3.20;99.90
11136;DHT22;5622;50.840;4.948;2023-01-31T05:03:59;3.20;99.90
11136;DHT22;5622;50.840;4.948;2023-01-31T05:06:26;3.20;99.90
11136;DHT22;5622;50.840;4.948;2023-01-31T05:08:54;3.20;99.90
11136;DHT22;5622;50.840;4.948;2023-01-31T05:11:26;3.20;99.90
11136;DHT22;5622;50.840;4.948;2023-01-31T05:13:53;3.20;99.90
11136;DHT22;5622;50.840;4.948;2023-01-31T05:16:22;3.20;99.90
11136;DHT22;5622;50.840;4.948;2023-01-31T05:18:49;3.30;99.90
11136;DHT22;5622;50.840;4.948;2023-01-31T05:21:19;3.30;99.90
11136;DHT22;5622;50.840;4.948;2023-01-31T05:23:46;3.30;99.90
11136;DHT22;5622;50.840;4.948;2023-01-31T05:26:16;3.30;99.90
11136;DHT22;5622;50.840;4.948;2023-01-31T05:28:44;3.30;99.90
11136;DHT22;5622;50.840;4.948;2023-01-31T05:31:12;3.40;99.90
11136;DHT22;5622;50.840;4.948;2023-01-31T05:33:41;3.40;99.90
11136;DHT22;5622;50.840;4.948;2023-01-31T05:36:09;3.50;99.90
11136;DHT22;5622;50.840;4.948;2023-01-31T05:38:36;3.50;99.90
11136;DHT22;5622;50.840;4.948;2023-01-31T05:41:03;3.50;99.90
11136;DHT22;5622;50.840;4.948;2023-01-31T05:43:31;3.60;99.90
11136;DHT22;5622;50.840;4.948;2023-01-31T05:45:58;3.60;99.90
11136;DHT22;5622;50.840;4.948;2023-01-31T05:48:26;3.60;99.90
11136;DHT22;5622;50.840;4.948;2023-01-31T05:50:54;3.50;99.90
11136;DHT22;5622;50.840;4.948;2023-01-31T05:53:21;3.60;99.90
11136;DHT22;5622;50.840;4.948;2023-01-31T05:55:49;3.60;99.90
11136;DHT22;5622;50.840;4.948;2023-01-31T05:58:17;3.50;99.90
11136;DHT22;5622;50.840;4.948;2023-01-31T06:00:44;3.50;99.90
11136;DHT22;5622;50.840;4.948;2023-01-31T06:03:12;3.80;99.90
11136;DHT22;5622;50.840;4.948;2023-01-31T06:05:39;3.60;99.90
11136;DHT22;5622;50.840;4.948;2023-01-31T06:08:08;3.50;99.90
11136;DHT22;5622;50.840;4.948;2023-01-31T06:10:37;3.50;99.90
11136;DHT22;5622;50.840;4.948;2023-01-31T06:13:05;3.60;99.90
11136;DHT22;5622;50.840;4.948;2023-01-31T06:15:32;3.50;99.90
11136;DHT22;5622;50.840;4.948;2023-01-31T06:18:02;3.50;99.90
11136;DHT22;5622;50.840;4.948;2023-01-31T06:20:30;3.60;99.90
11136;DHT22;5622;50.840;4.948;2023-01-31T06:22:59;3.60;99.90
11136;DHT22;5622;50.840;4.948;2023-01-31T09:48:08;5.80;99.90
11136;DHT22;5622;50.840;4.948;2023-01-31T09:54:37;5.90;99.90
11136;DHT22;5622;50.840;4.948;2023-01-31T09:58:05;5.90;99.90
11136;DHT22;5622;50.840;4.948;2023-01-31T10:11:12;6.00;99.90
11136;DHT22;5622;50.840;4.948;2023-01-31T10:14:28;6.30;99.90
11136;DHT22;5622;50.840;4.948;2023-01-31T10:17:32;6.10;99.90
11136;DHT22;5622;50.840;4.948;2023-01-31T10:20:48;6.30;99.90
11136;DHT22;5622;50.840;4.948;2023-01-31T10:24:12;6.20;99.90
11136;DHT22;5622;50.840;4.948;2023-01-31T10:30:22;6.50;99.90
11136;DHT22;5622;50.840;4.948;2023-01-31T10:33:49;6.40;99.90
11136;DHT22;5622;50.840;4.948;2023-01-31T10:36:57;6.60;99.90
11136;DHT22;5622;50.840;4.948;2023-01-31T10:39:49;6.90;99.90
11136;DHT22;5622;50.840;4.948;2023-01-31T10:45:36;6.80;99.90
11136;DHT22;5622;50.840;4.948;2023-01-31T10:48:30;6.80;99.90
11136;DHT22;5622;50.840;4.948;2023-01-31T10:51:30;6.90;99.90
11136;DHT22;5622;50.840;4.948;2023-01-31T10:54:34;7.00;99.90
11136;DHT22;5622;50.840;4.948;2023-01-31T10:57:44;7.10;99.90
11136;DHT22;5622;50.840;4.948;2023-01-31T11:01:09;7.20;99.90
11136;DHT22;5622;50.840;4.948;2023-01-31T11:04:01;7.30;99.90
11136;DHT22;5622;50.840;4.948;2023-01-31T11:06:39;7.40;99.90
11136;DHT22;5622;50.840;4.948;2023-01-31T11:09:55;7.40;99.90
11136;DHT22;5622;50.840;4.948;2023-01-31T11:12:58;7.40;99.90
11136;DHT22;5622;50.840;4.948;2023-01-31T11:16:26;7.60;99.90
11136;DHT22;5622;50.840;4.948;2023-01-31T11:19:31;7.60;99.90
11136;DHT22;5622;50.840;4.948;2023-01-31T11:22:23;7.60;99.90
11136;DHT22;5622;50.840;4.948;2023-01-31T11:25:44;7.60;99.90
11136;DHT22;5622;50.840;4.948;2023-01-31T11:28:55;7.60;99.90
11136;DHT22;5622;50.840;4.948;2023-01-31T11:32:21;7.60;99.90
11136;DHT22;5622;50.840;4.948;2023-01-31T11:35:25;8.00;99.90
11136;DHT22;5622;50.840;4.948;2023-01-31T11:38:31;7.30;99.90
11136;DHT22;5622;50.840;4.948;2023-01-31T11:41:33;7.60;99.90
11136;DHT22;5622;50.840;4.948;2023-01-31T11:44:32;7.60;99.90
11136;DHT22;5622;50.840;4.948;2023-01-31T11:47:51;7.60;99.90
11136;DHT22;5622;50.840;4.948;2023-01-31T11:50:56;7.80;99.90
11136;DHT22;5622;50.840;4.948;2023-01-31T12:06:41;7.70;99.90
11136;DHT22;5622;50.840;4.948;2023-01-31T12:09:49;8.00;99.90
11136;DHT22;5622;50.840;4.948;2023-01-31T12:12:56;7.80;99.90
11136;DHT22;5622;50.840;4.948;2023-01-31T12:16:01;7.80;99.90
11136;DHT22;5622;50.840;4.948;2023-01-31T12:19:02;7.80;99.90
11136;DHT22;5622;50.840;4.948;2023-01-31T12:21:51;7.90;99.90
11136;DHT22;5622;50.840;4.948;2023-01-31T12:24:49;7.90;99.90
11136;DHT22;5622;50.840;4.948;2023-01-31T12:28:04;7.70;99.90
11136;DHT22;5622;50.840;4.948;2023-01-31T13:12:17;7.90;99.90
11136;DHT22;5622;50.840;4.948;2023-01-31T13:19:21;7.70;99.90
11136;DHT22;5622;50.840;4.948;2023-01-31T14:29:25;7.70;99.90
11136;DHT22;5622;50.840;4.948;2023-01-31T14:35:57;7.50;99.90
11136;DHT22;5622;50.840;4.948;2023-01-31T14:39:23;7.60;99.90
11136;DHT22;5622;50.840;4.948;2023-01-31T14:42:40;8.20;99.90
11136;DHT22;5622;50.840;4.948;2023-01-31T16:46:39;7.80;99.90
11136;DHT22;5622;50.840;4.948;2023-01-31T18:00:19;8.00;99.90
11136;DHT22;5622;50.840;4.948;2023-01-31T18:02:52;8.00;99.90
11136;DHT22;5622;50.840;4.948;2023-01-31T18:05:28;8.00;99.90
11136;DHT22;5622;50.840;4.948;2023-01-31T18:07:56;7.90;99.90
11136;DHT22;5622;50.840;4.948;2023-01-31T18:10:25;8.00;99.90
11136;DHT22;5622;50.840;4.948;2023-01-31T18:12:53;8.00;99.90
11136;DHT22;5622;50.840;4.948;2023-01-31T18:15:27;8.00;99.90
11136;DHT22;5622;50.840;4.948;2023-01-31T18:18:05;7.90;99.90
11136;DHT22;5622;50.840;4.948;2023-01-31T18:20:34;8.00;99.90
11136;DHT22;5622;50.840;4.948;2023-01-31T18:23:02;8.00;99.90
11136;DHT22;5622;50.840;4.948;2023-01-31T18:25:29;8.00;99.90
11136;DHT22;5622;50.840;4.948;2023-01-31T18:27:57;8.00;99.90
11136;DHT22;5622;50.840;4.948;2023-01-31T18:30:27;7.90;99.90
11136;DHT22;5622;50.840;4.948;2023-01-31T18:32:55;8.40;99.90
11136;DHT22;5622;50.840;4.948;2023-01-31T18:35:23;8.00;99.90
11136;DHT22;5622;50.840;4.948;2023-01-31T18:37:51;8.00;99.90
11136;DHT22;5622;50.840;4.948;2023-01-31T18:40:20;8.00;99.90
11136;DHT22;5622;50.840;4.948;2023-01-31T18:42:49;7.80;99.90
11136;DHT22;5622;50.840;4.948;2023-01-31T18:45:16;7.90;99.90
11136;DHT22;5622;50.840;4.948;2023-01-31T18:47:45;7.90;99.90
11136;DHT22;5622;50.840;4.948;2023-01-31T18:50:13;7.90;99.90
11136;DHT22;5622;50.840;4.948;2023-01-31T18:52:41;7.90;99.90
11136;DHT22;5622;50.840;4.948;2023-01-31T18:55:08;7.90;99.90
11136;DHT22;5622;50.840;4.948;2023-01-31T18:57:38;8.10;99.90
11136;DHT22;5622;50.840;4.948;2023-01-31T19:00:07;7.50;99.90
11136;DHT22;5622;50.840;4.948;2023-01-31T19:02:34;7.90;99.90
11136;DHT22;5622;50.840;4.948;2023-01-31T19:05:03;7.90;99.90
11136;DHT22;5622;50.840;4.948;2023-01-31T19:07:30;7.90;99.90
11136;DHT22;5622;50.840;4.948;2023-01-31T19:09:58;7.90;99.90
11136;DHT22;5622;50.840;4.948;2023-01-31T19:12:26;7.90;99.90
11136;DHT22;5622;50.840;4.948;2023-01-31T19:14:54;7.80;99.90
11136;DHT22;5622;50.840;4.948;2023-01-31T19:17:21;7.90;99.90
11136;DHT22;5622;50.840;4.948;2023-01-31T19:19:48;7.90;99.90
11136;DHT22;5622;50.840;4.948;2023-01-31T19:22:17;7.90;99.90
11136;DHT22;5622;50.840;4.948;2023-01-31T19:24:44;7.80;99.90
11136;DHT22;5622;50.840;4.948;2023-01-31T19:27:12;7.80;99.90
11136;DHT22;5622;50.840;4.948;2023-01-31T19:29:39;7.80;99.90
11136;DHT22;5622;50.840;4.948;2023-01-31T19:32:06;7.80;99.90
11136;DHT22;5622;50.840;4.948;2023-01-31T19:34:34;7.80;99.90
11136;DHT22;5622;50.840;4.948;2023-01-31T19:37:02;7.70;99.90
11136;DHT22;5622;50.840;4.948;2023-01-31T19:39:31;7.80;99.90
11136;DHT22;5622;50.840;4.948;2023-01-31T19:41:58;8.30;99.90
11136;DHT22;5622;50.840;4.948;2023-01-31T19:44:26;7.80;99.90
11136;DHT22;5622;50.840;4.948;2023-01-31T19:46:53;7.70;99.90
11136;DHT22;5622;50.840;4.948;2023-01-31T19:49:21;7.80;99.90
11136;DHT22;5622;50.840;4.948;2023-01-31T19:51:48;7.80;99.90
11136;DHT22;5622;50.840;4.948;2023-01-31T19:54:17;7.80;99.90
11136;DHT22;5622;50.840;4.948;2023-01-31T19:56:46;7.80;99.90
11136;DHT22;5622;50.840;4.948;2023-01-31T19:59:14;7.80;99.90
11136;DHT22;5622;50.840;4.948;2023-01-31T20:01:41;7.80;99.90
11136;DHT22;5622;50.840;4.948;2023-01-31T20:04:08;7.80;99.90
11136;DHT22;5622;50.840;4.948;2023-01-31T20:06:36;7.80;99.90
11136;DHT22;5622;50.840;4.948;2023-01-31T20:09:03;7.80;99.90
11136;DHT22;5622;50.840;4.948;2023-01-31T20:11:32;7.80;99.90
11136;DHT22;5622;50.840;4.948;2023-01-31T20:14:02;7.80;99.90
11136;DHT22;5622;50.840;4.948;2023-01-31T20:16:31;7.90;99.90
11136;DHT22;5622;50.840;4.948;2023-01-31T20:19:00;7.90;99.90
11136;DHT22;5622;50.840;4.948;2023-01-31T20:21:28;7.80;99.90
11136;DHT22;5622;50.840;4.948;2023-01-31T20:24:00;7.80;99.90
11136;DHT22;5622;50.840;4.948;2023-01-31T20:26:28;7.90;99.90
11136;DHT22;5622;50.840;4.948;2023-01-31T20:28:58;7.80;99.90
11136;DHT22;5622;50.840;4.948;2023-01-31T20:31:29;7.60;99.90
11136;DHT22;5622;50.840;4.948;2023-01-31T20:33:56;7.90;99.90
11136;DHT22;5622;50.840;4.948;2023-01-31T20:36:24;7.80;99.90
11136;DHT22;5622;50.840;4.948;2023-01-31T20:38:51;7.90;99.90
11136;DHT22;5622;50.840;4.948;2023-01-31T20:41:19;7.80;99.90
11136;DHT22;5622;50.840;4.948;2023-01-31T20:43:47;7.80;99.90
11136;DHT22;5622;50.840;4.948;2023-01-31T20:46:18;7.80;99.90
11136;DHT22;5622;50.840;4.948;2023-01-31T20:48:57;7.70;99.90
11136;DHT22;5622;50.840;4.948;2023-01-31T20:51:27;7.80;99.90
11136;DHT22;5622;50.840;4.948;2023-01-31T20:53:57;7.80;99.90
11136;DHT22;5622;50.840;4.948;2023-01-31T20:56:28;7.80;99.90
11136;DHT22;5622;50.840;4.948;2023-01-31T20:58:57;7.70;99.90
11136;DHT22;5622;50.840;4.948;2023-01-31T21:01:26;7.70;99.90
11136;DHT22;5622;50.840;4.948;2023-01-31T21:03:58;6.90;99.90
11136;DHT22;5622;50.840;4.948;2023-01-31T21:06:31;7.70;99.90
11136;DHT22;5622;50.840;4.948;2023-01-31T21:09:07;7.50;99.90
11136;DHT22;5622;50.840;4.948;2023-01-31T21:11:37;7.60;99.90
11136;DHT22;5622;50.840;4.948;2023-01-31T21:14:06;7.70;99.90
11136;DHT22;5622;50.840;4.948;2023-01-31T21:16:36;7.50;99.90
11136;DHT22;5622;50.840;4.948;2023-01-31T21:19:11;7.50;99.90
11136;DHT22;5622;50.840;4.948;2023-01-31T21:21:38;7.60;99.90
11136;DHT22;5622;50.840;4.948;2023-01-31T21:24:06;7.50;99.90
11136;DHT22;5622;50.840;4.948;2023-01-31T21:26:34;7.50;99.90
11136;DHT22;5622;50.840;4.948;2023-01-31T21:29:02;7.50;99.90
11136;DHT22;5622;50.840;4.948;2023-01-31T21:31:30;7.50;99.90
11136;DHT22;5622;50.840;4.948;2023-01-31T21:34:02;7.40;99.90
11136;DHT22;5622;50.840;4.948;2023-01-31T21:36:52;7.60;99.90
11136;DHT22;5622;50.840;4.948;2023-01-31T21:39:23;7.40;99.90
11136;DHT22;5622;50.840;4.948;2023-01-31T21:41:54;7.50;99.90
11136;DHT22;5622;50.840;4.948;2023-01-31T21:44:42;7.40;99.90
11136;DHT22;5622;50.840;4.948;2023-01-31T21:47:15;7.30;99.90
11136;DHT22;5622;50.840;4.948;2023-01-31T21:49:51;7.30;99.90
11136;DHT22;5622;50.840;4.948;2023-01-31T21:52:30;7.30;99.90
11136;DHT22;5622;50.840;4.948;2023-01-31T21:55:07;7.20;99.90
11136;DHT22;5622;50.840;4.948;2023-01-31T21:57:43;7.10;99.90
11136;DHT22;5622;50.840;4.948;2023-01-31T22:00:18;7.10;99.90
11136;DHT22;5622;50.840;4.948;2023-01-31T22:02:50;7.00;99.90
11136;DHT22;5622;50.840;4.948;2023-01-31T22:05:26;7.00;99.90
11136;DHT22;5622;50.840;4.948;2023-01-31T22:08:02;7.20;99.90
11136;DHT22;5622;50.840;4.948;2023-01-31T22:10:58;6.80;99.90
11136;DHT22;5622;50.840;4.948;2023-01-31T22:13:41;6.90;99.90
11136;DHT22;5622;50.840;4.948;2023-01-31T22:16:13;6.90;99.90
11136;DHT22;5622;50.840;4.948;2023-01-31T22:18:46;6.70;99.90
11136;DHT22;5622;50.840;4.948;2023-01-31T22:21:17;6.80;99.90
11136;DHT22;5622;50.840;4.948;2023-01-31T22:23:53;6.70;99.90
11136;DHT22;5622;50.840;4.948;2023-01-31T22:26:34;6.90;99.90
11136;DHT22;5622;50.840;4.948;2023-01-31T22:29:19;7.40;99.90
11136;DHT22;5622;50.840;4.948;2023-01-31T22:31:55;6.70;99.90
11136;DHT22;5622;50.840;4.948;2023-01-31T22:34:25;7.40;99.90
11136;DHT22;5622;50.840;4.948;2023-01-31T22:37:04;6.70;99.90
11136;DHT22;5622;50.840;4.948;2023-01-31T22:39:57;6.70;99.90
11136;DHT22;5622;50.840;4.948;2023-01-31T22:42:35;6.60;99.90
11136;DHT22;5622;50.840;4.948;2023-01-31T22:45:23;6.50;99.90
11136;DHT22;5622;50.840;4.948;2023-01-31T22:48:00;6.30;99.90
11136;DHT22;5622;50.840;4.948;2023-01-31T22:50:51;6.40;99.90
11136;DHT22;5622;50.840;4.948;2023-01-31T22:53:41;6.30;99.90
11136;DHT22;5622;50.840;4.948;2023-01-31T22:56:15;6.40;99.90
11136;DHT22;5622;50.840;4.948;2023-01-31T22:58:55;6.40;99.90
11136;DHT22;5622;50.840;4.948;2023-01-31T23:01:41;6.30;99.90
11136;DHT22;5622;50.840;4.948;2023-01-31T23:04:31;6.30;99.90
11136;DHT22;5622;50.840;4.948;2023-01-31T23:19:05;6.20;99.90
11136;DHT22;5622;50.840;4.948;2023-01-31T23:22:04;6.20;99.90
11136;DHT22;5622;50.840;4.948;2023-01-31T23:24:34;6.20;99.90
11136;DHT22;5622;50.840;4.948;2023-01-31T23:27:16;6.30;99.90
11136;DHT22;5622;50.840;4.948;2023-01-31T23:29:58;6.30;99.90
11136;DHT22;5622;50.840;4.948;2023-01-31T23:32:28;6.30;99.90
11136;DHT22;5622;50.840;4.948;2023-01-31T23:46:07;6.20;99.90
11136;DHT22;5622;50.840;4.948;2023-01-31T23:48:51;6.50;99.90
11136;DHT22;5622;50.840;4.948;2023-01-31T23:51:34;6.60;99.90
11136;DHT22;5622;50.840;4.948;2023-01-31T23:54:07;6.50;99.90
11136;DHT22;5622;50.840;4.948;2023-01-31T23:56:54;7.90;99.90
11136;DHT22;5622;50.840;4.948;2023-01-31T23:59:34;6.60;99.90
